• Join FlightAware (Why Join?)
  • Login
  • US Flag 
09:53AM EDT


 

Airport Tracker/Info


-or-


 

Live Flight TrackerFlight Track Log ✈ JBU33 ✈ 27-Apr-2013 ✈ KBTV - KJFK

Flight Track Log - Related Links

Times and Time Zones

All times are in EDT time to prevent confusion due to time zone crossing. See the JBU33 flight status page for this flight to view local times or setup timezone preferences in your user account.

Time Position Orientation Groundspeed Altitude Reporting Facility
EDT Latitude Longitude Course Direction KTS MPH feet Rate Location/Type
01:35PM 44.2175 -73.2331 190° South  Level FlightAware Approximate
01:35PM 44.4247 -73.2947 196° South 266 306 6,300  Level Boston Center
01:36PM 44.1380 -73.2733 195° South  Level FlightAware Approximate
01:36PM 44.3644 -73.3083 189° South 280 322 9,600  Level Boston Center
01:37PM 44.0552 -73.3038 194° South  Level FlightAware Approximate
01:37PM 44.2786 -73.3361 193° South 304 350 10,100  Level Boston Center
01:38PM 43.9720 -73.3316 194° South  Level FlightAware Approximate
01:38PM 44.1847 -73.3664 193° South 341 392 13,200  Level Boston Center
01:39PM 43.8891 -73.3611 196° South  Level FlightAware Approximate
01:39PM 44.0886 -73.3967 193° South 356 410 16,100  Level Boston Center
01:40PM 43.8069 -73.3941 196° South  Level FlightAware Approximate
01:40PM 43.9883 -73.4297 193° South 361 415 18,000  Level Boston Center
01:41PM 43.8839 -73.4597 192° South 375 432 20,400 2,160 Climbing Boston Center
01:42PM 43.7772 -73.4925 193° South 386 444 22,400 1,680 Climbing Boston Center
01:43PM 43.6603 -73.5278 192° South 420 483 23,800 1,560 Climbing Boston Center
01:44PM 43.5389 -73.5656 193° South 434 499 25,600 1,320 Climbing Boston Center
01:45PM 43.4178 -73.6033 193° South 447 514 26,500 1,200 Climbing Boston Center
01:46PM 43.2903 -73.6381 191° South 452 520 28,000 720 Climbing Boston Center
01:47PM 43.1731 -73.6728 192° South 452 520 28,000  Level Boston Center
01:48PM 43.0497 -73.7131 193° South 429 494 28,000  Level Boston Center
01:49PM 42.9514 -73.7450 193° South 418 481 28,000  Level Boston Center
01:50PM 42.8386 -73.7767 192° South 410 472 28,000  Level Boston Center
01:51PM 42.7256 -73.8081 192° South 415 478 28,000  Level Boston Center
01:52PM 42.6111 -73.8083 180° South 415 478 28,000  Level Boston Center
01:53PM 42.4817 -73.8139 182° South 415 478 28,000  Level Boston Center
01:54PM 42.3525 -73.8167 181° South 442 509 28,000  Level Boston Center
01:55PM 42.2275 -73.8167 180° South 455 524 28,000  Level Boston Center
01:56PM 42.1106 -73.8169 180° South 464 534 28,000  Level Boston Center
01:57PM 41.9836 -73.8197 181° South 464 534 28,000  Level Boston Center
01:58PM 41.7803 -73.8197 180° South 458 527 28,000 -900 Level New York Center
01:59PM 41.6569 -73.8392 187° South 458 527 25,800 -2,340 Descending New York Center
02:00PM 41.5486 -73.9228 210° Southwest 425 489 23,400 -2,280 Descending New York Center
02:01PM 41.4569 -74.0014 213° Southwest 409 471 21,300 -1,740 Descending New York Center
02:02PM 41.3694 -74.0803 214° Southwest 402 463 20,000 -660 Descending New York Center
02:03PM 41.2922 -74.1508 214° Southwest 371 427 20,000  Level New York Center
02:04PM 41.2311 -74.2472 230° Southwest 349 402 20,000  Level New York Center
02:05PM 41.1761 -74.3492 234° Southwest 349 402 20,000  Level New York Center
02:06PM 41.1211 -74.4481 234° Southwest 342 394 20,000  Level New York Center
02:07PM 41.0639 -74.5439 232° Southwest 336 387 20,000 -240 Level New York Center
02:08PM 40.9722 -74.5417 179° South 303 349 19,600 -540 Descending New York Center
02:09PM 40.9450 -74.4111 105° East 240 276 19,000 -360 Descending New York Center
02:10PM 40.9339 -74.3006 98° East 302 348 19,000  Level New York Center
02:11PM 40.9167 -74.2000 103° East 347 399 19,000  Level New York TRACON
02:12PM 40.9000 -74.0833 101° East 347 399 19,000 -660 Level New York TRACON
02:13PM 40.8500 -73.9833 123° Southeast 340 391 17,800 -1,260 Descending New York TRACON
02:14PM 40.8000 -73.8667 119° Southeast 334 384 16,400 -1,560 Descending New York TRACON
02:15PM 40.7667 -73.7500 111° Southeast 338 389 14,600 -1,740 Descending New York TRACON
02:16PM 40.7167 -73.6500 123° Southeast 338 389 13,100 -900 Descending New York TRACON
02:17PM 40.6833 -73.5500 114° Southeast 320 368 13,000 -60 Descending New York TRACON
02:18PM 40.6167 -73.4667 136° Southeast 332 382 13,000 -600 Level New York TRACON
02:19PM 40.5333 -73.5000 197° South 309 356 11,800 -1,200 Descending New York TRACON
02:20PM 40.4667 -73.5500 210° Southwest 301 346 10,600 -1,500 Descending New York TRACON
02:21PM 40.4000 -73.6000 210° Southwest 296 341 8,800 -1,920 Descending New York TRACON
02:22PM 40.3500 -73.6833 232° Southwest 283 326 6,900 -1,920 Descending New York TRACON
02:23PM 40.3667 -73.7667 285° West 266 306 5,200 -1,440 Descending New York TRACON
02:24PM 40.3833 -73.8667 282° West 244 281 4,100 -600 Descending New York TRACON
02:25PM 40.4000 -73.9333 288° West 202 232 4,000 -540 Descending New York TRACON
02:26PM 40.4333 -73.9667 323° Northwest 169 194 3,100 -540 Descending New York TRACON
02:27PM 40.4833 -73.9667 360° North 166 191 3,000 -60 Descending New York TRACON
02:28PM 40.5333 -73.9667 360° North 166 191 3,000  Level New York TRACON
02:29PM 40.5667 -73.9333 37° Northeast 171 197 3,000 -360 Level New York TRACON
02:30PM 40.6167 -73.9000 27° Northeast 166 191 2,300 -720 Descending New York TRACON
02:31PM 40.6500 -73.8667 37° Northeast 135 155 1,600 -780 Descending New York TRACON
02:32PM 40.6667 -73.8333 57° Northeast 141 162 800 -840 Descending New York TRACON